Time;durP1;ratioP1;P1;durP2;ratioP2;P2;SDS_P1;SDS_P2;PMS_P1;PMS_P2;Temp;Humidity;BMP_temperature;BMP_pressure;BME280_temperature;BME280_humidity;BME280_pressure;Samples;Min_cycle;Max_cycle;Signal;HPM_P1;HPM_P2
2023/09/24 00:02:31;;;;;;;;;;;;;;;24.90;46.79;100427.17;108965;1264;67599;31
2023/09/24 00:04:58;;;;;;;;;;;;;;;24.90;46.77;100426.88;108993;1265;67782;-90
2023/09/24 00:07:25;;;;;;;;;;;;;;;24.89;46.71;100426.77;109029;1266;67443;-90
2023/09/24 00:09:51;;;;;;;;;;;;;;;24.89;46.85;100434.30;108955;1266;67682;-91
2023/09/24 00:12:17;;;;;;;;;;;;;;;24.89;46.91;100439.80;108909;1266;67520;-90
2023/09/24 00:14:44;;;;;;;;;;;;;;;24.88;46.71;100443.56;108961;1265;67567;-90
2023/09/24 00:19:38;;;;;;;;;;;;;;;24.89;46.94;100442.17;109112;1264;67522;-90
2023/09/24 00:22:04;;;;;;;;;;;;;;;24.88;46.71;100443.10;109040;1265;67134;-90
2023/09/24 00:24:30;;;;;;;;;;;;;;;24.88;46.89;100438.67;109008;1265;67721;-90
2023/09/24 00:26:59;;;;;;;;;;;;;;;24.88;47.02;100439.25;109095;1265;67338;-90
2023/09/24 00:29:47;;;;;;;;;;;;;;;24.87;46.82;100436.29;109196;1264;66991;-90
2023/09/24 00:32:20;;;;;;;;;;;;;;;24.87;46.97;100436.73;109013;1265;67525;31
2023/09/24 00:34:46;;;;;;;;;;;;;;;24.87;47.11;100432.89;109020;1266;67668;-91
2023/09/24 00:37:14;;;;;;;;;;;;;;;24.86;47.16;100430.73;108998;1264;67676;-91
2023/09/24 00:39:40;;;;;;;;;;;;;;;24.86;47.19;100433.82;108995;1265;66930;-91
2023/09/24 00:42:09;;;;;;;;;;;;;;;24.86;46.89;100438.05;108922;1267;67058;-89
2023/09/24 00:44:36;;;;;;;;;;;;;;;24.85;47.06;100431.99;108863;1264;67643;-90
2023/09/24 00:49:43;;;;;;;;;;;;;;;24.85;47.13;100434.21;108980;1267;74255;-90
2023/09/24 00:52:10;;;;;;;;;;;;;;;24.85;47.08;100438.63;108968;1265;67266;-90
2023/09/24 00:54:36;;;;;;;;;;;;;;;24.84;47.31;100441.10;108994;1264;67505;-90
2023/09/24 00:57:03;;;;;;;;;;;;;;;24.84;47.34;100448.32;109061;1266;66892;-90
2023/09/24 00:59:29;;;;;;;;;;;;;;;24.84;47.22;100453.83;108943;1264;67286;-89
2023/09/24 01:04:33;;;;;;;;;;;;;;;24.83;47.29;100463.63;109136;1264;67600;-90
2023/09/24 01:06:59;;;;;;;;;;;;;;;24.83;47.32;100460.54;109015;1265;67544;-90
2023/09/24 01:09:27;;;;;;;;;;;;;;;24.83;47.34;100459.92;109155;1264;67082;-90
2023/09/24 01:11:57;;;;;;;;;;;;;;;24.82;47.44;100458.43;109160;1264;68223;-90
2023/09/24 01:14:25;;;;;;;;;;;;;;;24.82;47.46;100461.98;109013;1264;74030;-90
2023/09/24 01:16:51;;;;;;;;;;;;;;;24.82;47.26;100468.52;109021;1264;67679;-89
2023/09/24 01:19:21;;;;;;;;;;;;;;;24.82;47.30;100466.05;108968;1264;67685;-90
2023/09/24 01:21:50;;;;;;;;;;;;;;;24.81;47.38;100465.70;109202;1264;68242;-89
2023/09/24 01:24:16;;;;;;;;;;;;;;;24.81;47.54;100463.85;109021;1266;67682;-90
2023/09/24 01:26:44;;;;;;;;;;;;;;;24.81;47.48;100463.95;108910;1267;75512;-90
2023/09/24 01:29:11;;;;;;;;;;;;;;;24.81;47.46;100462.82;109028;1264;68011;-90
2023/09/24 01:31:40;;;;;;;;;;;;;;;24.81;47.57;100460.52;109070;1264;67563;-90
2023/09/24 01:34:09;;;;;;;;;;;;;;;24.80;47.50;100461.19;109004;1266;67730;-89
2023/09/24 01:36:35;;;;;;;;;;;;;;;24.80;47.59;100453.95;108980;1267;67658;-89
2023/09/24 01:39:01;;;;;;;;;;;;;;;24.80;47.40;100446.71;108864;1266;67711;-90
2023/09/24 01:41:30;;;;;;;;;;;;;;;24.80;47.64;100441.30;108911;1267;67745;-90
2023/09/24 01:46:39;;;;;;;;;;;;;;;24.79;47.42;100439.11;109110;1264;67707;-89
2023/09/24 01:49:05;;;;;;;;;;;;;;;24.79;47.36;100437.09;108993;1265;67930;-90
2023/09/24 01:51:31;;;;;;;;;;;;;;;24.78;47.55;100433.77;108928;1265;67136;-89
2023/09/24 01:53:59;;;;;;;;;;;;;;;24.78;47.80;100436.14;109086;1264;67391;-90
2023/09/24 01:56:24;;;;;;;;;;;;;;;24.77;47.95;100433.84;109023;1265;67719;-90
2023/09/24 02:01:26;;;;;;;;;;;;;;;24.76;47.54;100441.29;108885;1268;67673;-90
2023/09/24 02:03:54;;;;;;;;;;;;;;;24.76;47.78;100448.35;108858;1269;67962;-90
2023/09/24 02:06:19;;;;;;;;;;;;;;;24.77;47.71;100453.75;108916;1268;67579;-90
2023/09/24 02:08:45;;;;;;;;;;;;;;;24.76;47.99;100448.51;108826;1268;67718;-90
2023/09/24 02:11:12;;;;;;;;;;;;;;;24.76;47.82;100442.38;108836;1268;67771;-90
2023/09/24 02:13:38;;;;;;;;;;;;;;;24.76;47.80;100437.65;108881;1270;67592;-90
2023/09/24 02:16:06;;;;;;;;;;;;;;;24.75;47.96;100433.64;108839;1268;67688;-90
2023/09/24 02:18:34;;;;;;;;;;;;;;;24.75;48.06;100434.77;108829;1268;67642;-90
2023/09/24 02:21:01;;;;;;;;;;;;;;;24.75;48.05;100439.88;108828;1268;67682;-90
2023/09/24 02:23:27;;;;;;;;;;;;;;;24.75;47.86;100443.23;108832;1268;67504;-91
2023/09/24 02:25:53;;;;;;;;;;;;;;;24.75;47.98;100445.67;108834;1268;67614;-90
2023/09/24 02:28:19;;;;;;;;;;;;;;;24.74;48.19;100439.31;108840;1268;67732;-90
2023/09/24 02:30:45;;;;;;;;;;;;;;;24.74;48.07;100441.48;108856;1268;67744;-90
2023/09/24 02:33:11;;;;;;;;;;;;;;;24.74;48.04;100432.27;108830;1268;67609;-90
2023/09/24 02:35:38;;;;;;;;;;;;;;;24.74;48.15;100428.27;108903;1268;67689;-90
2023/09/24 02:38:04;;;;;;;;;;;;;;;24.74;48.21;100425.69;108886;1268;67567;-90
2023/09/24 02:40:30;;;;;;;;;;;;;;;24.74;48.23;100425.70;108815;1268;67210;-90
2023/09/24 02:42:57;;;;;;;;;;;;;;;24.73;48.35;100423.09;108983;1265;67558;-90
2023/09/24 02:45:23;;;;;;;;;;;;;;;24.73;48.45;100422.67;108944;1265;67653;-90
2023/09/24 02:47:50;;;;;;;;;;;;;;;24.73;48.46;100423.94;109010;1267;67549;-90
2023/09/24 02:50:18;;;;;;;;;;;;;;;24.72;48.25;100422.98;109110;1266;75170;-90
2023/09/24 02:53:05;;;;;;;;;;;;;;;24.72;48.38;100424.84;109004;1270;67552;31
2023/09/24 02:58:05;;;;;;;;;;;;;;;24.72;48.58;100428.34;109186;1264;67241;-90
2023/09/24 03:00:43;;;;;;;;;;;;;;;24.72;48.55;100422.42;108995;1264;67623;-90
2023/09/24 03:03:15;;;;;;;;;;;;;;;24.72;48.36;100425.79;108946;1266;74289;-90
2023/09/24 03:05:41;;;;;;;;;;;;;;;24.71;48.46;100425.02;109071;1266;67523;-90
2023/09/24 03:08:11;;;;;;;;;;;;;;;24.72;48.51;100425.10;108848;1264;67612;-90
2023/09/24 03:10:46;;;;;;;;;;;;;;;24.72;48.62;100423.92;109111;1264;67137;31
2023/09/24 03:13:12;;;;;;;;;;;;;;;24.71;48.49;100422.59;108980;1266;67514;-90
2023/09/24 03:15:40;;;;;;;;;;;;;;;24.71;48.73;100424.76;109002;1266;74398;-90
2023/09/24 03:20:57;;;;;;;;;;;;;;;24.71;48.80;100423.16;109068;1265;67201;-90
2023/09/24 03:23:24;;;;;;;;;;;;;;;24.71;48.68;100418.98;109069;1266;67443;-90
2023/09/24 03:25:50;;;;;;;;;;;;;;;24.71;48.68;100418.98;109060;1263;67257;-90
2023/09/24 03:28:16;;;;;;;;;;;;;;;24.71;48.82;100424.39;109010;1264;66971;-90
2023/09/24 03:30:45;;;;;;;;;;;;;;;24.70;48.78;100423.62;109077;1266;67010;-90
2023/09/24 03:33:11;;;;;;;;;;;;;;;24.71;48.74;100421.51;109119;1266;67562;-89
2023/09/24 03:35:37;;;;;;;;;;;;;;;24.70;48.86;100418.94;109014;1267;67117;-90
2023/09/24 03:38:03;;;;;;;;;;;;;;;24.70;48.78;100419.85;109060;1264;67430;-89
2023/09/24 03:40:49;;;;;;;;;;;;;;;24.70;48.79;100425.00;109059;1264;67721;31
2023/09/24 03:43:15;;;;;;;;;;;;;;;24.69;48.80;100413.70;109057;1266;67547;-90
2023/09/24 03:45:41;;;;;;;;;;;;;;;24.70;48.98;100416.46;108986;1266;68053;-90
2023/09/24 03:48:08;;;;;;;;;;;;;;;24.70;48.88;100411.11;108995;1266;67131;-90
2023/09/24 03:50:36;;;;;;;;;;;;;;;24.71;48.97;100415.85;109047;1264;67031;-90
2023/09/24 03:53:02;;;;;;;;;;;;;;;24.70;49.03;100413.53;108984;1266;67805;-90
2023/09/24 03:55:35;;;;;;;;;;;;;;;24.70;48.93;100410.39;108986;1266;67664;31
2023/09/24 03:58:01;;;;;;;;;;;;;;;24.69;49.12;100406.55;109001;1266;67396;-90
2023/09/24 04:00:27;;;;;;;;;;;;;;;24.70;49.16;100405.41;109170;1264;66841;-90
2023/09/24 04:02:53;;;;;;;;;;;;;;;24.69;49.16;100404.38;109039;1265;67710;-90
2023/09/24 04:05:21;;;;;;;;;;;;;;;24.69;49.08;100408.50;108917;1266;67041;-90
2023/09/24 04:07:49;;;;;;;;;;;;;;;24.69;49.04;100412.30;108883;1264;67752;-90
2023/09/24 04:12:51;;;;;;;;;;;;;;;24.69;49.09;100418.64;109143;1264;66890;-90
2023/09/24 04:15:18;;;;;;;;;;;;;;;24.69;49.20;100428.27;108904;1266;67039;-89
2023/09/24 04:17:47;;;;;;;;;;;;;;;24.69;49.31;100429.50;109023;1264;73940;-89
2023/09/24 04:20:21;;;;;;;;;;;;;;;24.68;49.18;100439.08;108940;1266;67628;-90
2023/09/24 04:22:47;;;;;;;;;;;;;;;24.68;49.24;100454.05;109126;1263;67589;-89
2023/09/24 04:27:56;;;;;;;;;;;;;;;24.68;49.28;100467.64;108973;1266;67532;-90
2023/09/24 04:30:24;;;;;;;;;;;;;;;24.68;49.25;100470.77;108958;1266;67109;-90
2023/09/24 04:32:51;;;;;;;;;;;;;;;24.68;49.21;100470.35;109029;1266;67510;-90
2023/09/24 04:35:20;;;;;;;;;;;;;;;24.68;49.38;100472.67;108895;1265;68224;-90
2023/09/24 04:37:46;;;;;;;;;;;;;;;24.68;49.40;100474.69;108862;1270;67641;-90
2023/09/24 04:42:42;;;;;;;;;;;;;;;24.67;49.50;100476.04;109045;1266;74189;-90
2023/09/24 04:45:12;;;;;;;;;;;;;;;24.67;49.55;100473.32;108906;1266;67354;-90
2023/09/24 04:47:39;;;;;;;;;;;;;;;24.67;49.45;100473.63;109052;1265;67662;-90
2023/09/24 04:50:05;;;;;;;;;;;;;;;24.67;49.67;100469.65;108913;1268;67753;-89
2023/09/24 04:52:32;;;;;;;;;;;;;;;24.67;49.59;100469.51;108983;1263;67407;-90
2023/09/24 04:55:05;;;;;;;;;;;;;;;24.67;49.51;100470.48;108968;1266;74627;-89
2023/09/24 04:57:36;;;;;;;;;;;;;;;24.67;49.61;100477.27;109054;1266;67898;-90
2023/09/24 05:00:04;;;;;;;;;;;;;;;24.67;49.56;100479.80;108906;1266;67919;-90
2023/09/24 05:02:30;;;;;;;;;;;;;;;24.67;49.65;100481.95;108899;1267;67039;-90
2023/09/24 05:04:56;;;;;;;;;;;;;;;24.67;49.61;100485.08;108975;1266;67655;-90
2023/09/24 05:07:22;;;;;;;;;;;;;;;24.67;49.52;100486.33;108853;1263;67644;-90
2023/09/24 05:09:51;;;;;;;;;;;;;;;24.67;49.56;100486.59;108946;1266;67645;-90
2023/09/24 05:12:17;;;;;;;;;;;;;;;24.67;49.77;100488.30;108962;1266;67696;-90
2023/09/24 05:14:43;;;;;;;;;;;;;;;24.67;49.74;100489.61;108934;1265;67248;-90
2023/09/24 05:17:09;;;;;;;;;;;;;;;24.67;49.72;100485.20;108933;1266;67180;-90
2023/09/24 05:19:36;;;;;;;;;;;;;;;24.67;49.76;100484.05;108965;1266;67840;-90
2023/09/24 05:24:33;;;;;;;;;;;;;;;24.67;49.70;100486.89;109043;1267;67609;-90
2023/09/24 05:26:59;;;;;;;;;;;;;;;24.67;49.90;100489.27;109021;1266;67612;-90
2023/09/24 05:29:25;;;;;;;;;;;;;;;24.66;49.77;100494.20;108957;1265;67707;-90
2023/09/24 05:31:51;;;;;;;;;;;;;;;24.67;49.68;100499.05;108932;1265;67564;-90
2023/09/24 05:34:17;;;;;;;;;;;;;;;24.67;49.78;100498.33;108936;1265;67594;-89
2023/09/24 05:36:43;;;;;;;;;;;;;;;24.67;49.80;100501.08;108864;1266;67641;-90
2023/09/24 05:39:09;;;;;;;;;;;;;;;24.68;49.84;100496.17;107855;1265;1477615;-90
2023/09/24 05:41:35;;;;;;;;;;;;;;;24.67;49.91;100494.30;108901;1265;74400;-90
2023/09/24 05:44:04;;;;;;;;;;;;;;;24.68;49.86;100498.20;108958;1266;67593;-90
2023/09/24 05:46:30;;;;;;;;;;;;;;;24.68;49.86;100496.90;108975;1265;67328;-90
2023/09/24 05:51:27;;;;;;;;;;;;;;;24.69;50.08;100503.23;109220;1265;66912;-90
2023/09/24 05:53:53;;;;;;;;;;;;;;;24.69;49.82;100509.05;108888;1266;67156;-91
2023/09/24 05:56:19;;;;;;;;;;;;;;;24.69;49.86;100511.61;109076;1265;67585;-90
2023/09/24 05:58:45;;;;;;;;;;;;;;;24.70;49.77;100511.23;109020;1266;67639;-90
2023/09/24 06:01:15;;;;;;;;;;;;;;;24.70;49.89;100509.29;109027;1271;67348;-89
2023/09/24 06:03:41;;;;;;;;;;;;;;;24.70;49.97;100513.96;109076;1266;67315;-89
2023/09/24 06:06:10;;;;;;;;;;;;;;;24.70;50.06;100513.14;109109;1266;67928;-90
2023/09/24 06:08:37;;;;;;;;;;;;;;;24.71;49.91;100511.96;109137;1265;67377;-90
2023/09/24 06:11:04;;;;;;;;;;;;;;;24.72;50.02;100509.80;108921;1266;66897;-90
2023/09/24 06:13:31;;;;;;;;;;;;;;;24.72;49.83;100514.05;108991;1267;67618;-89
2023/09/24 06:16:07;;;;;;;;;;;;;;;24.73;49.86;100520.68;108971;1267;67781;31
2023/09/24 06:18:33;;;;;;;;;;;;;;;24.73;49.88;100528.66;109011;1266;75158;-90
2023/09/24 06:21:02;;;;;;;;;;;;;;;24.74;49.83;100532.98;108843;1266;67056;-90
2023/09/24 06:23:28;;;;;;;;;;;;;;;24.74;49.79;100535.54;108856;1268;67657;-90
2023/09/24 06:25:54;;;;;;;;;;;;;;;24.74;50.05;100535.39;108890;1265;67677;-90
2023/09/24 06:28:20;;;;;;;;;;;;;;;24.75;49.86;100537.59;108888;1265;67377;-90
2023/09/24 06:33:27;;;;;;;;;;;;;;;24.76;49.99;100540.70;109007;1266;67563;-90
2023/09/24 06:35:53;;;;;;;;;;;;;;;24.77;49.71;100539.83;108870;1265;67911;-90
2023/09/24 06:38:20;;;;;;;;;;;;;;;24.77;49.97;100543.38;108955;1265;67678;-90
2023/09/24 06:40:46;;;;;;;;;;;;;;;24.78;49.77;100548.36;108883;1267;68452;-90
2023/09/24 06:43:12;;;;;;;;;;;;;;;24.78;49.66;100554.33;108978;1264;67630;-90
2023/09/24 06:45:38;;;;;;;;;;;;;;;24.78;49.71;100554.94;109042;1264;67620;-90
2023/09/24 06:48:04;;;;;;;;;;;;;;;24.80;49.76;100559.77;108876;1266;67654;-90
2023/09/24 06:50:30;;;;;;;;;;;;;;;24.80;49.86;100558.96;109054;1266;67593;-90
2023/09/24 06:52:56;;;;;;;;;;;;;;;24.81;49.95;100554.93;109057;1266;67642;-90
2023/09/24 06:55:23;;;;;;;;;;;;;;;24.82;49.80;100553.43;109076;1264;67610;-91
2023/09/24 06:57:58;;;;;;;;;;;;;;;24.82;49.90;100551.98;109098;1264;67516;31
2023/09/24 07:00:24;;;;;;;;;;;;;;;24.83;49.68;100555.06;109092;1265;67171;-90
2023/09/24 07:02:51;;;;;;;;;;;;;;;24.84;49.66;100558.20;109019;1266;68702;-90
2023/09/24 07:05:17;;;;;;;;;;;;;;;24.85;49.92;100569.23;108912;1266;67032;-91
2023/09/24 07:07:43;;;;;;;;;;;;;;;24.85;49.94;100563.63;108924;1266;67374;-90
2023/09/24 07:10:10;;;;;;;;;;;;;;;24.86;49.88;100564.80;108950;1264;67752;-90
2023/09/24 07:15:09;;;;;;;;;;;;;;;24.87;49.98;100565.56;109121;1264;67004;-90
2023/09/24 07:17:38;;;;;;;;;;;;;;;24.87;49.83;100566.42;108984;1265;74365;-90
2023/09/24 07:20:04;;;;;;;;;;;;;;;24.88;49.92;100563.27;108924;1266;67290;-90
2023/09/24 07:22:30;;;;;;;;;;;;;;;24.89;49.76;100564.08;108915;1266;66990;-90
2023/09/24 07:24:57;;;;;;;;;;;;;;;24.90;49.89;100560.73;108911;1268;67408;-89
2023/09/24 07:27:24;;;;;;;;;;;;;;;24.90;49.87;100561.55;108920;1267;67415;-90
2023/09/24 07:29:50;;;;;;;;;;;;;;;24.91;49.81;100558.39;109002;1266;67673;-90
2023/09/24 07:32:16;;;;;;;;;;;;;;;24.92;49.92;100554.46;108935;1267;67661;-90
2023/09/24 07:34:47;;;;;;;;;;;;;;;24.93;49.74;100551.41;108923;1266;68172;-89
2023/09/24 07:37:17;;;;;;;;;;;;;;;24.92;49.69;100552.26;108969;1266;67925;-90
2023/09/24 07:39:49;;;;;;;;;;;;;;;24.93;49.72;100555.68;108969;1265;67977;31
2023/09/24 07:42:15;;;;;;;;;;;;;;;24.93;49.81;100562.79;108965;1266;74359;-90
2023/09/24 07:44:42;;;;;;;;;;;;;;;24.94;49.96;100569.63;108962;1266;67569;-90
2023/09/24 07:47:08;;;;;;;;;;;;;;;24.94;49.68;100578.68;108939;1265;67554;-90
2023/09/24 07:49:34;;;;;;;;;;;;;;;24.94;49.79;100580.58;108957;1265;67854;-89
2023/09/24 07:52:00;;;;;;;;;;;;;;;24.95;49.96;100583.39;108979;1264;67027;-90
2023/09/24 07:54:31;;;;;;;;;;;;;;;24.96;49.84;100586.42;108953;1264;67569;-90
2023/09/24 07:57:09;;;;;;;;;;;;;;;24.96;49.70;100583.44;109017;1266;67652;-90
2023/09/24 07:59:35;;;;;;;;;;;;;;;24.96;49.96;100583.80;109058;1266;67019;-89
2023/09/24 08:02:02;;;;;;;;;;;;;;;24.97;50.15;100582.30;109161;1269;67359;-90
2023/09/24 08:04:28;;;;;;;;;;;;;;;24.97;50.08;100573.25;109157;1265;67721;-91
2023/09/24 08:06:55;;;;;;;;;;;;;;;24.98;49.93;100568.95;109134;1264;67469;-90
2023/09/24 08:09:21;;;;;;;;;;;;;;;24.98;49.91;100569.04;108999;1264;67594;-90
2023/09/24 08:11:48;;;;;;;;;;;;;;;24.99;49.82;100564.10;109146;1264;67053;-90
2023/09/24 08:14:14;;;;;;;;;;;;;;;24.99;50.02;100565.07;108960;1266;67773;-90
2023/09/24 08:16:41;;;;;;;;;;;;;;;25.00;49.95;100562.29;108930;1266;68025;-90
2023/09/24 08:19:07;;;;;;;;;;;;;;;25.01;50.05;100558.98;108959;1271;67464;-89
2023/09/24 08:21:38;;;;;;;;;;;;;;;25.02;50.02;100559.79;109088;1264;67591;31
2023/09/24 08:24:04;;;;;;;;;;;;;;;25.02;50.06;100558.39;108934;1266;67664;-90
2023/09/24 08:26:31;;;;;;;;;;;;;;;25.03;50.11;100559.35;108981;1265;67531;-90
2023/09/24 08:29:02;;;;;;;;;;;;;;;25.03;49.93;100562.67;109057;1266;67602;-90
2023/09/24 08:31:29;;;;;;;;;;;;;;;25.05;49.90;100564.21;109172;1264;74982;-90
2023/09/24 08:33:55;;;;;;;;;;;;;;;25.05;50.05;100563.00;108983;1264;67351;-90
2023/09/24 08:38:51;;;;;;;;;;;;;;;25.07;49.95;100564.63;109171;1264;67702;-90
2023/09/24 08:41:17;;;;;;;;;;;;;;;25.09;49.93;100564.46;109068;1265;67717;-90
2023/09/24 08:43:43;;;;;;;;;;;;;;;25.09;50.05;100563.27;108974;1266;67442;-90
2023/09/24 08:46:10;;;;;;;;;;;;;;;25.09;49.96;100565.95;108945;1265;67547;-90
2023/09/24 08:48:36;;;;;;;;;;;;;;;25.10;49.82;100569.95;108964;1266;67678;-90
2023/09/24 08:51:04;;;;;;;;;;;;;;;25.10;49.96;100568.83;109118;1264;67726;-89
2023/09/24 08:53:30;;;;;;;;;;;;;;;25.10;49.94;100568.86;108997;1264;68161;-90
2023/09/24 08:55:56;;;;;;;;;;;;;;;25.11;49.96;100574.46;108908;1269;67935;-90
2023/09/24 08:58:23;;;;;;;;;;;;;;;25.11;49.95;100571.94;108977;1264;67725;-90
2023/09/24 09:00:51;;;;;;;;;;;;;;;25.11;50.17;100572.24;108942;1263;67365;-89
2023/09/24 09:05:45;;;;;;;;;;;;;;;25.12;50.04;100564.41;109139;1265;66973;-90
2023/09/24 09:08:13;;;;;;;;;;;;;;;25.13;49.78;100563.27;109009;1266;74249;-90
2023/09/24 09:10:39;;;;;;;;;;;;;;;25.14;50.03;100561.91;108910;1265;67529;-90
2023/09/24 09:13:05;;;;;;;;;;;;;;;25.14;50.04;100556.09;109116;1264;67576;-90
2023/09/24 09:15:32;;;;;;;;;;;;;;;25.15;50.04;100552.01;108997;1264;67596;-89
2023/09/24 09:17:58;;;;;;;;;;;;;;;25.16;49.88;100549.52;108950;1266;67014;-89
2023/09/24 09:20:43;;;;;;;;;;;;;;;25.16;49.81;100551.98;108941;1266;67230;-89
2023/09/24 09:23:13;;;;;;;;;;;;;;;25.16;49.95;100551.46;109030;1264;67503;-90
2023/09/24 09:25:52;;;;;;;;;;;;;;;25.17;50.00;100551.85;108867;1266;67574;-90
2023/09/24 09:33:44;;;;;;;;;;;;;;;25.18;49.82;100553.50;108934;1266;73947;-89
2023/09/24 09:38:49;;;;;;;;;;;;;;;25.19;49.98;100550.34;108945;1267;67574;-90
2023/09/24 09:41:16;;;;;;;;;;;;;;;25.19;50.04;100549.24;108917;1266;67988;-89
2023/09/24 09:43:42;;;;;;;;;;;;;;;25.20;49.81;100555.06;108912;1266;67561;-90
2023/09/24 09:46:08;;;;;;;;;;;;;;;25.20;49.79;100551.30;108889;1265;68113;-89
2023/09/24 09:48:33;;;;;;;;;;;;;;;25.21;49.84;100547.42;108889;1266;67689;-89
2023/09/24 09:53:35;;;;;;;;;;;;;;;25.22;49.79;100549.06;109067;1266;67718;-89
2023/09/24 09:56:02;;;;;;;;;;;;;;;25.23;49.82;100550.13;108966;1267;67094;-90
2023/09/24 09:58:37;;;;;;;;;;;;;;;25.23;49.88;100549.88;108906;1265;74986;-89
2023/09/24 10:01:03;;;;;;;;;;;;;;;25.23;49.90;100556.61;108909;1265;67549;-90
2023/09/24 10:03:30;;;;;;;;;;;;;;;25.24;49.86;100561.48;108839;1264;67615;-89
2023/09/24 10:05:55;;;;;;;;;;;;;;;25.24;49.68;100561.23;108975;1270;67519;-89
2023/09/24 10:08:38;;;;;;;;;;;;;;;25.25;49.73;100560.45;108902;1265;67349;-89
2023/09/24 10:11:04;;;;;;;;;;;;;;;25.25;49.76;100553.59;108946;1265;74370;-89
2023/09/24 10:16:28;;;;;;;;;;;;;;;25.26;49.78;100555.23;109091;1266;67527;-90
2023/09/24 10:18:54;;;;;;;;;;;;;;;25.28;49.91;100557.20;108943;1265;67656;-90
2023/09/24 10:21:31;;;;;;;;;;;;;;;25.28;49.70;100555.59;108963;1263;67633;-89
2023/09/24 10:24:10;;;;;;;;;;;;;;;25.29;49.64;100555.52;109086;1264;74180;-90
2023/09/24 10:26:52;;;;;;;;;;;;;;;25.30;49.63;100551.48;109044;1264;67626;-90
2023/09/24 10:29:18;;;;;;;;;;;;;;;25.30;49.65;100555.25;108875;1266;67589;-89
2023/09/24 10:32:02;;;;;;;;;;;;;;;25.31;49.81;100551.52;108906;1267;67098;-89
2023/09/24 10:37:08;;;;;;;;;;;;;;;25.33;49.73;100547.59;109117;1265;74209;-89
2023/09/24 10:39:34;;;;;;;;;;;;;;;25.34;49.78;100543.75;108906;1266;67837;-89
2023/09/24 10:42:13;;;;;;;;;;;;;;;25.35;49.68;100548.23;108879;1266;67712;31
2023/09/24 10:44:39;;;;;;;;;;;;;;;25.35;49.61;100550.68;108907;1267;67524;-90
2023/09/24 10:47:30;;;;;;;;;;;;;;;25.36;49.55;100550.47;108989;1267;67748;-90
2023/09/24 10:50:12;;;;;;;;;;;;;;;25.37;49.48;100549.69;109082;1266;74267;-91
2023/09/24 10:52:50;;;;;;;;;;;;;;;25.37;49.39;100539.79;108966;1265;72331;-90
2023/09/24 10:55:16;;;;;;;;;;;;;;;25.38;49.49;100535.61;108951;1266;67738;-90
2023/09/24 10:57:45;;;;;;;;;;;;;;;25.38;49.42;100532.73;108964;1266;67369;-90
2023/09/24 11:00:15;;;;;;;;;;;;;;;25.39;49.54;100539.24;108908;1264;74225;-89
2023/09/24 11:02:41;;;;;;;;;;;;;;;25.40;49.40;100536.52;108966;1266;74209;-90
2023/09/24 11:05:07;;;;;;;;;;;;;;;25.40;49.44;100535.98;109006;1266;67641;-90
2023/09/24 11:07:33;;;;;;;;;;;;;;;25.41;49.37;100532.67;109029;1266;67685;-90
2023/09/24 11:09:59;;;;;;;;;;;;;;;25.41;49.56;100527.77;109032;1267;66852;-90
2023/09/24 11:12:24;;;;;;;;;;;;;;;25.41;49.41;100524.48;109172;1265;66857;-89
2023/09/24 11:14:54;;;;;;;;;;;;;;;25.42;49.45;100529.52;108996;1265;67532;-90
2023/09/24 11:17:19;;;;;;;;;;;;;;;25.42;49.29;100522.20;108988;1266;66960;-90
2023/09/24 11:19:45;;;;;;;;;;;;;;;25.43;49.22;100513.77;109006;1266;67583;-90
2023/09/24 11:22:20;;;;;;;;;;;;;;;25.43;49.22;100518.66;108974;1266;67697;-90
2023/09/24 11:24:46;;;;;;;;;;;;;;;25.44;49.29;100512.77;108986;1266;67580;-90
2023/09/24 11:27:12;;;;;;;;;;;;;;;25.44;49.20;100511.23;108955;1266;74936;-90
2023/09/24 11:29:38;;;;;;;;;;;;;;;25.44;49.12;100513.84;108892;1266;67634;-90
2023/09/24 11:32:04;;;;;;;;;;;;;;;25.45;48.95;100515.31;108925;1266;67620;-90
2023/09/24 11:34:31;;;;;;;;;;;;;;;25.45;49.17;100514.50;108919;1266;67005;-90
2023/09/24 11:36:57;;;;;;;;;;;;;;;25.46;49.16;100512.98;108966;1266;66952;-90
2023/09/24 11:39:23;;;;;;;;;;;;;;;25.46;49.13;100518.86;108893;1266;67679;-90
2023/09/24 11:41:53;;;;;;;;;;;;;;;25.46;48.91;100518.90;108869;1266;67665;-88
2023/09/24 11:44:19;;;;;;;;;;;;;;;25.47;49.08;100514.29;108947;1265;67635;-90
2023/09/24 11:46:48;;;;;;;;;;;;;;;25.48;49.14;100518.88;108983;1266;67556;-90
2023/09/24 11:49:14;;;;;;;;;;;;;;;25.49;48.95;100516.59;108986;1266;67458;-90
2023/09/24 11:51:40;;;;;;;;;;;;;;;25.49;48.80;100518.70;109026;1264;67756;-90
2023/09/24 11:54:06;;;;;;;;;;;;;;;25.49;49.14;100517.73;108960;1264;67205;-89
2023/09/24 11:56:32;;;;;;;;;;;;;;;25.50;48.88;100523.11;109012;1264;67579;-90
2023/09/24 11:58:59;;;;;;;;;;;;;;;25.51;48.74;100517.80;109034;1265;67723;-90
2023/09/24 12:01:25;;;;;;;;;;;;;;;25.51;48.78;100521.80;108909;1266;67759;-89
2023/09/24 12:03:53;;;;;;;;;;;;;;;25.51;48.74;100515.04;108957;1266;68030;-89
2023/09/24 12:06:19;;;;;;;;;;;;;;;25.52;48.75;100511.15;108837;1264;67900;-90
2023/09/24 12:08:49;;;;;;;;;;;;;;;25.54;48.83;100513.25;108931;1265;67640;31
2023/09/24 12:11:14;;;;;;;;;;;;;;;25.54;48.98;100511.40;108976;1265;67572;-89
2023/09/24 12:13:41;;;;;;;;;;;;;;;25.54;48.54;100511.75;108962;1264;66963;-89
2023/09/24 12:16:07;;;;;;;;;;;;;;;25.55;48.54;100506.28;109186;1264;67648;-90
2023/09/24 12:18:33;;;;;;;;;;;;;;;25.54;48.54;100500.71;109001;1266;67623;-89
2023/09/24 12:21:07;;;;;;;;;;;;;;;25.55;48.59;100502.67;109056;1263;67536;-89
2023/09/24 12:26:11;;;;;;;;;;;;;;;25.56;48.40;100503.98;109000;1266;67504;-90
2023/09/24 12:28:37;;;;;;;;;;;;;;;25.57;48.61;100505.64;108928;1267;67900;-90
2023/09/24 12:31:04;;;;;;;;;;;;;;;25.56;48.28;100501.35;108971;1266;67494;-90
2023/09/24 12:33:30;;;;;;;;;;;;;;;25.57;48.25;100502.80;108896;1266;67508;-89
2023/09/24 12:35:56;;;;;;;;;;;;;;;25.56;48.22;100503.33;108957;1266;67660;-90
2023/09/24 12:38:22;;;;;;;;;;;;;;;25.57;48.29;100507.48;108987;1266;67882;-89
2023/09/24 12:40:48;;;;;;;;;;;;;;;25.57;48.40;100507.98;108922;1266;67628;-90
2023/09/24 12:43:15;;;;;;;;;;;;;;;25.58;48.30;100512.04;108878;1266;67719;-90
2023/09/24 12:45:42;;;;;;;;;;;;;;;25.58;48.24;100512.23;108884;1266;67780;-90
2023/09/24 12:48:08;;;;;;;;;;;;;;;25.58;48.31;100509.55;108970;1266;67194;-90
2023/09/24 12:50:41;;;;;;;;;;;;;;;25.59;48.15;100512.60;108973;1266;67626;31
2023/09/24 12:53:07;;;;;;;;;;;;;;;25.60;48.09;100509.54;109122;1267;74269;-90
2023/09/24 12:55:33;;;;;;;;;;;;;;;25.60;48.00;100508.41;109003;1265;67078;-90
2023/09/24 12:58:00;;;;;;;;;;;;;;;25.60;47.99;100509.48;108932;1266;67709;-90
2023/09/24 13:00:26;;;;;;;;;;;;;;;25.60;48.08;100507.88;109097;1264;67609;-90
2023/09/24 13:02:52;;;;;;;;;;;;;;;25.61;47.91;100505.33;108923;1266;67307;-90
2023/09/24 13:05:21;;;;;;;;;;;;;;;25.62;47.87;100509.95;109071;1266;67715;-90
2023/09/24 13:07:52;;;;;;;;;;;;;;;25.63;47.84;100506.04;109150;1264;67890;-90
2023/09/24 13:10:18;;;;;;;;;;;;;;;25.63;47.97;100506.61;108973;1264;68324;-89
2023/09/24 13:12:44;;;;;;;;;;;;;;;25.62;47.77;100505.87;108932;1266;67724;-90
2023/09/24 13:15:10;;;;;;;;;;;;;;;25.63;47.77;100509.02;108920;1265;66967;-89
2023/09/24 13:17:36;;;;;;;;;;;;;;;25.63;47.47;100507.66;108853;1269;67637;-89
2023/09/24 13:20:03;;;;;;;;;;;;;;;25.63;47.76;100509.85;108985;1270;67586;-89
2023/09/24 13:22:28;;;;;;;;;;;;;;;25.63;47.79;100511.89;109018;1266;66976;-89
2023/09/24 13:24:54;;;;;;;;;;;;;;;25.63;47.61;100508.15;108889;1266;66944;-89
2023/09/24 13:27:23;;;;;;;;;;;;;;;25.63;47.61;100516.95;108990;1266;67811;-90
2023/09/24 13:29:49;;;;;;;;;;;;;;;25.62;47.67;100516.29;108949;1271;67428;-90
2023/09/24 13:34:47;;;;;;;;;;;;;;;25.62;47.53;100520.16;109183;1265;67524;-90